createdAt,value
2019-06-27T00:01:40.200Z,8.03
2019-06-27T00:04:33.258Z,11.18
2019-06-27T00:07:26.310Z,9.15
2019-06-27T00:10:19.378Z,9.80
2019-06-27T00:13:07.051Z,10.18
2019-06-27T00:15:59.864Z,7.78
2019-06-27T00:18:53.162Z,10.50
2019-06-27T00:21:46.217Z,8.95
2019-06-27T00:24:40.046Z,9.35
2019-06-27T00:27:33.397Z,10.40
2019-06-27T00:30:26.156Z,7.60
2019-06-27T00:33:18.952Z,8.30
2019-06-27T00:36:12.011Z,7.47
2019-06-27T00:39:12.488Z,11.60
2019-06-27T00:42:06.570Z,8.95
2019-06-27T00:44:59.369Z,7.60
2019-06-27T00:47:52.679Z,9.13
2019-06-27T00:50:45.737Z,7.40
2019-06-27T00:53:38.803Z,9.75
2019-06-27T00:56:31.849Z,6.70
2019-06-27T00:59:24.903Z,8.00
2019-06-27T01:02:17.963Z,6.50
2019-06-27T01:05:10.763Z,8.65
2019-06-27T01:08:03.562Z,5.97
2019-06-27T01:10:56.363Z,7.25
2019-06-27T01:13:49.161Z,7.22
2019-06-27T01:16:42.215Z,7.25
2019-06-27T01:19:35.016Z,6.65
2019-06-27T01:22:28.619Z,6.40
2019-06-27T01:25:21.389Z,6.00
2019-06-27T01:28:16.490Z,6.83
2019-06-27T01:31:09.289Z,6.42
2019-06-27T01:34:02.620Z,5.28
2019-06-27T01:36:55.672Z,8.70
2019-06-27T01:39:48.733Z,8.53
2019-06-27T01:42:41.511Z,6.60
2019-06-27T01:45:54.542Z,5.72
2019-06-27T01:48:47.598Z,6.67
2019-06-27T01:51:40.654Z,5.78
2019-06-27T01:54:33.709Z,6.25
2019-06-27T01:57:27.018Z,5.67
2019-06-27T02:00:19.849Z,6.47
2019-06-27T02:03:12.615Z,5.40
2019-06-27T02:06:05.674Z,5.75
2019-06-27T02:08:59.751Z,5.42
2019-06-27T02:11:52.809Z,6.60
2019-06-27T02:14:45.608Z,6.25
2019-06-27T02:17:34.572Z,5.30
2019-06-27T02:20:27.898Z,5.60
2019-06-27T02:23:20.936Z,5.37
2019-06-27T02:26:18.346Z,5.33
2019-06-27T02:29:11.409Z,4.95
2019-06-27T02:32:04.202Z,4.85
2019-06-27T02:34:57.267Z,4.40
2019-06-27T02:37:50.315Z,4.60
2019-06-27T02:40:43.112Z,4.72
2019-06-27T02:43:35.916Z,4.72
2019-06-27T02:46:28.975Z,6.12
2019-06-27T02:49:21.787Z,5.90
2019-06-27T02:52:14.828Z,4.25
2019-06-27T02:55:07.634Z,6.30
2019-06-27T02:58:00.693Z,4.40
2019-06-27T03:00:53.737Z,4.83
2019-06-27T03:03:46.540Z,5.85
2019-06-27T03:06:39.592Z,4.03
2019-06-27T03:09:32.652Z,4.83
2019-06-27T03:12:21.917Z,5.30
2019-06-27T03:15:14.923Z,4.83
2019-06-27T03:18:05.097Z,3.77
2019-06-27T03:20:57.967Z,3.40
2019-06-27T03:23:51.016Z,5.10
2019-06-27T03:26:43.824Z,5.10
2019-06-27T03:29:37.135Z,5.78
2019-06-27T03:32:30.258Z,5.00
2019-06-27T03:35:23.258Z,3.52
2019-06-27T03:38:16.039Z,4.37
2019-06-27T03:41:08.847Z,3.87
2019-06-27T03:44:01.644Z,5.15
2019-06-27T03:46:54.441Z,3.58
2019-06-27T03:49:48.524Z,4.45
2019-06-27T03:52:31.973Z,3.65
2019-06-27T03:55:24.911Z,3.58
2019-06-27T03:58:17.967Z,4.50
2019-06-27T04:01:11.271Z,3.17
2019-06-27T04:04:04.589Z,3.60
2019-06-27T04:06:57.388Z,3.40
2019-06-27T04:09:50.440Z,4.65
2019-06-27T04:12:43.496Z,5.08
2019-06-27T04:15:32.638Z,4.50
2019-06-27T04:18:25.775Z,3.40
2019-06-27T04:21:18.572Z,3.75
2019-06-27T04:24:11.369Z,3.60
2019-06-27T04:27:04.942Z,2.65
2019-06-27T04:29:58.760Z,4.58
2019-06-27T04:32:53.098Z,3.27
2019-06-27T04:35:46.152Z,3.95
2019-06-27T04:38:38.953Z,3.00
2019-06-27T04:41:33.032Z,3.72
2019-06-27T04:50:08.109Z,3.15
2019-06-27T04:53:01.162Z,3.27
2019-06-27T04:55:54.220Z,4.00
2019-06-27T04:58:47.030Z,3.00
2019-06-27T05:01:39.815Z,3.30
2019-06-27T05:04:32.875Z,3.67
2019-06-27T05:07:25.929Z,3.37
2019-06-27T05:10:18.733Z,4.60
2019-06-27T05:13:11.527Z,3.52
2019-06-27T05:16:04.621Z,2.42
2019-06-27T05:18:57.640Z,3.20
2019-06-27T05:21:50.440Z,2.65
2019-06-27T05:24:43.754Z,2.30
2019-06-27T05:27:40.393Z,2.25
2019-06-27T05:30:33.958Z,1.82
2019-06-27T05:33:26.763Z,2.40
2019-06-27T05:36:19.560Z,3.00
2019-06-27T05:39:12.360Z,3.00
2019-06-27T05:42:05.163Z,3.05
2019-06-27T05:44:58.982Z,2.80
2019-06-27T05:47:51.793Z,2.42
2019-06-27T05:50:44.839Z,3.52
2019-06-27T05:53:37.642Z,2.98
2019-06-27T05:56:30.445Z,3.58
2019-06-27T05:59:23.246Z,2.40
2019-06-27T06:02:17.068Z,2.92
2019-06-27T06:05:10.120Z,3.35
2019-06-27T06:08:02.925Z,4.20
2019-06-27T06:10:55.978Z,2.17
2019-06-27T06:13:49.032Z,2.65
2019-06-27T06:16:42.107Z,2.90
2019-06-27T06:19:34.888Z,3.08
2019-06-27T06:22:27.689Z,3.47
2019-06-27T06:25:20.494Z,3.05
2019-06-27T06:28:09.620Z,2.70
2019-06-27T06:31:02.506Z,3.47
2019-06-27T06:33:55.595Z,2.67
2019-06-27T06:36:48.360Z,3.85
2019-06-27T06:39:41.416Z,3.87
2019-06-27T06:42:30.889Z,3.40
2019-06-27T06:45:20.015Z,3.65
2019-06-27T06:48:12.903Z,2.95
2019-06-27T06:51:05.706Z,2.77
2019-06-27T06:53:58.507Z,3.40
2019-06-27T06:56:51.301Z,3.72
2019-06-27T06:59:44.360Z,3.10
2019-06-27T07:02:37.739Z,2.90
2019-06-27T07:05:30.728Z,3.08
2019-06-27T07:08:23.783Z,3.15
2019-06-27T07:11:16.839Z,3.00
2019-06-27T07:14:09.646Z,4.22
2019-06-27T07:17:02.955Z,3.22
2019-06-27T07:19:57.606Z,3.22
2019-06-27T07:22:49.320Z,2.80
2019-06-27T07:25:42.126Z,3.45
2019-06-27T07:28:35.180Z,2.75
2019-06-27T07:31:27.979Z,4.20
2019-06-27T07:34:21.044Z,2.92
2019-06-27T07:37:14.094Z,2.80
2019-06-27T07:40:08.422Z,2.62
2019-06-27T07:43:01.734Z,3.40
2019-06-27T07:45:54.792Z,2.67
2019-06-27T07:48:43.963Z,3.37
2019-06-27T07:51:37.064Z,3.40
2019-06-27T07:54:30.124Z,2.72
2019-06-27T07:57:22.920Z,4.22
2019-06-27T08:00:15.980Z,2.47
2019-06-27T08:03:08.792Z,2.60
2019-06-27T08:06:01.581Z,3.05
2019-06-27T08:08:50.740Z,3.87
2019-06-27T08:11:43.596Z,3.22
2019-06-27T08:14:36.390Z,2.75
2019-06-27T08:17:25.872Z,3.00
2019-06-27T08:20:15.194Z,3.35
2019-06-27T08:23:08.403Z,3.05
2019-06-27T08:25:57.642Z,3.08
2019-06-27T08:28:53.740Z,3.02
2019-06-27T08:31:51.890Z,3.90
2019-06-27T08:34:41.131Z,3.10
2019-06-27T08:37:33.927Z,2.90
2019-06-27T08:40:27.504Z,4.47
2019-06-27T08:43:20.810Z,2.62
2019-06-27T08:46:14.632Z,4.55
2019-06-27T08:49:07.942Z,3.67
2019-06-27T08:52:00.999Z,3.87
2019-06-27T08:54:54.067Z,3.40
2019-06-27T08:57:47.369Z,3.40
2019-06-27T09:00:40.173Z,3.90
2019-06-27T09:03:34.507Z,3.02
2019-06-27T09:06:27.815Z,3.60
2019-06-27T09:09:23.948Z,3.10
2019-06-27T09:12:17.778Z,3.92
2019-06-27T09:15:11.084Z,5.55
2019-06-27T09:18:04.141Z,3.22
2019-06-27T09:20:57.193Z,4.72
2019-06-27T09:23:53.830Z,3.50
2019-06-27T09:26:46.887Z,3.52
2019-06-27T09:29:39.945Z,3.52
2019-06-27T09:32:33.007Z,3.00
2019-06-27T09:35:26.058Z,4.12
2019-06-27T09:38:19.367Z,3.60
2019-06-27T09:41:12.168Z,3.83
2019-06-27T09:44:04.967Z,3.87
2019-06-27T09:46:54.065Z,3.80
2019-06-27T09:49:46.984Z,4.92
2019-06-27T09:52:40.038Z,3.87
2019-06-27T09:55:29.255Z,4.10
2019-06-27T09:58:22.057Z,4.37
2019-06-27T10:01:15.112Z,4.42
2019-06-27T10:04:07.912Z,4.78
2019-06-27T10:07:00.713Z,4.87
2019-06-27T10:09:53.535Z,3.75
2019-06-27T10:12:46.314Z,3.95
2019-06-27T10:15:39.112Z,3.70
2019-06-27T10:18:32.170Z,4.17
2019-06-27T10:21:25.223Z,3.77
2019-06-27T10:24:18.023Z,4.67
2019-06-27T10:27:11.081Z,4.40
2019-06-27T10:30:00.085Z,4.30
2019-06-27T10:32:59.170Z,3.90
2019-06-27T10:35:45.895Z,4.33
2019-06-27T10:38:38.952Z,4.08
2019-06-27T10:41:31.751Z,4.97
2019-06-27T10:44:24.811Z,3.90
2019-06-27T10:47:17.606Z,4.25
2019-06-27T10:50:10.664Z,4.75
2019-06-27T10:53:03.719Z,4.12
2019-06-27T10:55:56.775Z,4.70
2019-06-27T10:58:49.855Z,4.78
2019-06-27T11:01:42.638Z,4.97
2019-06-27T11:04:35.446Z,4.00
2019-06-27T11:07:28.509Z,4.15
2019-06-27T11:10:21.544Z,4.05
2019-06-27T11:13:14.863Z,4.20
2019-06-27T11:16:07.656Z,4.87
2019-06-27T11:19:00.716Z,5.03
2019-06-27T11:21:53.770Z,4.50
2019-06-27T11:24:46.569Z,5.60
2019-06-27T11:27:35.532Z,4.85
2019-06-27T11:30:28.585Z,4.55
2019-06-27T11:33:31.876Z,4.37
2019-06-27T11:36:15.476Z,6.03
2019-06-27T11:39:09.285Z,4.47
2019-06-27T11:42:02.603Z,4.65
2019-06-27T11:44:55.411Z,4.97
2019-06-27T11:47:48.458Z,5.62
2019-06-27T11:50:41.255Z,5.25
2019-06-27T11:53:34.313Z,4.87
2019-06-27T11:56:27.113Z,4.83
2019-06-27T11:59:19.911Z,5.47
2019-06-27T12:02:12.972Z,5.10
2019-06-27T12:05:06.029Z,5.97
2019-06-27T12:08:00.118Z,5.22
2019-06-27T12:10:53.162Z,4.42
2019-06-27T12:13:46.217Z,4.30
2019-06-27T12:16:39.015Z,5.03
2019-06-27T12:19:32.075Z,5.25
2019-06-27T12:22:24.883Z,4.40
2019-06-27T12:25:17.676Z,4.40
2019-06-27T12:28:10.735Z,5.05
2019-06-27T12:31:19.286Z,4.62
2019-06-27T12:34:06.987Z,5.53
2019-06-27T12:36:53.739Z,5.33
2019-06-27T12:39:54.472Z,5.50
2019-06-27T12:42:47.527Z,5.10
2019-06-27T12:49:49.707Z,5.72
2019-06-27T12:55:26.566Z,4.80
2019-06-27T12:58:19.649Z,5.62
2019-06-27T13:01:12.423Z,6.00
2019-06-27T13:04:25.961Z,4.58
2019-06-27T13:10:35.410Z,5.60
2019-06-27T13:13:25.094Z,5.00
2019-06-27T13:16:26.855Z,5.30
2019-06-27T13:19:19.654Z,4.87
2019-06-27T13:28:33.638Z,5.65
2019-06-27T13:31:34.375Z,4.65
2019-06-27T13:34:41.008Z,4.95
2019-06-27T13:37:36.871Z,5.22
2019-06-27T13:40:29.684Z,5.20
2019-06-27T13:47:06.472Z,5.00
2019-06-27T13:50:00.811Z,5.17
2019-06-27T13:52:54.841Z,5.65
2019-06-27T13:55:53.321Z,5.60
2019-06-27T14:01:54.325Z,4.40
2019-06-27T14:04:56.694Z,5.55
2019-06-27T14:07:37.064Z,5.08
2019-06-27T14:10:30.123Z,5.60
2019-06-27T14:13:33.911Z,5.00
2019-06-27T14:16:26.986Z,5.15
2019-06-27T14:19:27.462Z,5.35
2019-06-27T14:28:56.038Z,6.70
2019-06-27T14:31:50.120Z,7.03
2019-06-27T14:34:43.182Z,6.28
2019-06-27T14:37:36.233Z,5.87
2019-06-27T14:40:26.059Z,6.22
2019-06-27T14:43:18.761Z,5.85
2019-06-27T14:46:07.977Z,5.97
2019-06-27T14:49:08.458Z,5.60
2019-06-27T14:55:08.135Z,5.05
2019-06-27T14:57:57.610Z,5.83
2019-06-27T15:00:50.666Z,6.80
2019-06-27T15:03:44.235Z,5.78
2019-06-27T15:06:44.769Z,5.45
2019-06-27T15:09:43.146Z,5.50
2019-06-27T15:19:33.225Z,5.33
2019-06-27T15:22:26.536Z,6.37
2019-06-27T15:25:19.340Z,5.00
2019-06-27T15:28:12.400Z,5.10
2019-06-27T15:31:12.890Z,5.40
2019-06-27T15:34:05.926Z,4.95
2019-06-27T15:47:42.316Z,4.85
2019-06-27T15:50:35.112Z,5.70
2019-06-27T15:53:40.201Z,5.78
2019-06-27T15:56:33.257Z,5.80
2019-06-27T15:59:26.567Z,5.80
2019-06-27T16:02:15.928Z,4.97
2019-06-27T16:05:08.878Z,5.78
2019-06-27T16:08:09.319Z,5.05
2019-06-27T16:11:18.515Z,5.03
2019-06-27T16:14:11.312Z,4.95
2019-06-27T16:17:04.619Z,4.97
2019-06-27T16:19:57.428Z,5.60
2019-06-27T16:22:45.264Z,5.92
2019-06-27T16:25:39.175Z,5.15
2019-06-27T16:28:32.255Z,5.28
2019-06-27T16:31:32.200Z,5.28
2019-06-27T16:34:38.055Z,5.10
2019-06-27T16:37:31.114Z,4.90
2019-06-27T16:40:24.167Z,5.55
2019-06-27T16:43:16.968Z,5.78
2019-06-27T16:46:24.872Z,4.75
2019-06-27T16:49:14.342Z,5.70
2019-06-27T16:52:07.400Z,5.42
2019-06-27T16:55:00.200Z,5.75
2019-06-27T16:57:53.513Z,4.92
2019-06-27T17:00:46.324Z,5.42
2019-06-27T17:03:41.415Z,4.10
2019-06-27T17:06:41.945Z,4.40
2019-06-27T17:09:27.793Z,5.00
2019-06-27T17:12:20.842Z,4.90
2019-06-27T17:15:13.914Z,4.75
2019-06-27T17:18:07.212Z,4.72
2019-06-27T17:21:00.535Z,4.85
2019-06-27T17:23:53.317Z,4.92
2019-06-27T17:26:46.122Z,4.62
2019-06-27T17:29:38.922Z,4.35
2019-06-27T17:32:31.979Z,4.90
2019-06-27T17:35:25.037Z,4.40
2019-06-27T17:38:17.832Z,4.28
2019-06-27T17:41:11.658Z,4.75
2019-06-27T17:44:04.713Z,5.03
2019-06-27T17:47:10.568Z,5.08
2019-06-27T17:50:03.428Z,4.90
2019-06-27T17:52:56.424Z,4.45
2019-06-27T17:55:49.227Z,4.50
2019-06-27T17:58:43.305Z,4.15
2019-06-27T18:01:36.104Z,4.62
2019-06-27T18:04:28.903Z,4.12
2019-06-27T18:07:22.985Z,5.08
2019-06-27T18:10:15.784Z,4.30
2019-06-27T18:13:08.586Z,4.33
2019-06-27T18:16:01.386Z,3.42
2019-06-27T18:18:54.439Z,4.33
2019-06-27T18:22:42.546Z,3.80
2019-06-27T18:25:35.592Z,3.60
2019-06-27T18:28:28.657Z,3.65
2019-06-27T18:31:21.705Z,3.60
2019-06-27T18:34:15.024Z,3.80
2019-06-27T18:37:08.072Z,3.55
2019-06-27T18:40:00.870Z,3.15
2019-06-27T18:42:53.672Z,4.78
2019-06-27T18:45:46.539Z,4.28
2019-06-27T18:48:39.271Z,3.35
2019-06-27T18:51:32.345Z,4.72
2019-06-27T18:54:25.387Z,3.70
2019-06-27T18:57:18.438Z,3.50
2019-06-27T19:00:11.499Z,2.70
2019-06-27T19:03:05.587Z,3.02
2019-06-27T19:05:58.638Z,3.60
2019-06-27T19:08:51.691Z,2.35
2019-06-27T19:11:44.487Z,2.55
2019-06-27T19:14:37.543Z,2.45
2019-06-27T19:17:30.599Z,2.67
2019-06-27T19:20:35.176Z,2.00
2019-06-27T19:23:38.218Z,2.50
2019-06-27T19:26:31.271Z,2.10
2019-06-27T19:29:31.749Z,1.92
2019-06-27T19:32:25.073Z,1.72
2019-06-27T19:35:18.121Z,1.90
2019-06-27T19:38:11.181Z,1.70
2019-06-27T19:41:04.235Z,1.92
2019-06-27T19:43:57.034Z,1.77
2019-06-27T19:46:49.833Z,1.65
2019-06-27T19:49:43.911Z,1.55
2019-06-27T19:52:36.720Z,1.50
2019-06-27T19:55:29.768Z,1.40
2019-06-27T19:58:22.831Z,1.80
2019-06-27T20:01:15.623Z,1.67
2019-06-27T20:04:08.692Z,1.40
2019-06-27T20:07:01.739Z,1.42
2019-06-27T20:09:54.797Z,1.45
2019-06-27T20:12:47.850Z,1.25
2019-06-27T20:15:36.807Z,1.20
2019-06-27T20:18:30.132Z,1.20
2019-06-27T20:21:22.921Z,1.10
2019-06-27T20:24:10.095Z,1.37
2019-06-27T20:27:02.893Z,1.27
2019-06-27T20:29:55.691Z,1.67
2019-06-27T20:32:48.492Z,1.27
2019-06-27T20:35:41.291Z,1.50
2019-06-27T20:38:35.327Z,1.25
2019-06-27T20:41:29.350Z,1.25
2019-06-27T20:44:20.457Z,1.30
2019-06-27T20:47:16.330Z,1.30
2019-06-27T20:50:09.148Z,1.20
2019-06-27T20:53:01.929Z,1.50
2019-06-27T20:56:02.414Z,1.50
2019-06-27T20:58:55.207Z,1.27
2019-06-27T21:01:48.273Z,1.40
2019-06-27T21:04:41.320Z,1.17
2019-06-27T21:07:34.120Z,1.00
2019-06-27T21:10:26.923Z,1.30
2019-06-27T21:13:19.979Z,1.10
2019-06-27T21:16:14.054Z,1.05
2019-06-27T21:19:07.366Z,1.47
2019-06-27T21:22:01.196Z,1.22
2019-06-27T21:24:54.246Z,1.30
2019-06-27T21:27:47.305Z,1.12
2019-06-27T21:30:40.374Z,1.15
2019-06-27T21:33:33.173Z,1.07
2019-06-27T21:36:26.985Z,1.10
2019-06-27T21:39:20.552Z,1.70
2019-06-27T21:42:10.793Z,1.40
2019-06-27T21:45:03.597Z,1.20
2019-06-27T21:47:56.648Z,1.35
2019-06-27T21:50:49.594Z,1.17
2019-06-27T21:53:42.503Z,1.65
2019-06-27T21:56:35.814Z,1.20
2019-06-27T21:59:29.896Z,2.27
2019-06-27T22:02:22.705Z,1.30
2019-06-27T22:05:18.055Z,1.50
2019-06-27T22:08:18.027Z,1.35
2019-06-27T22:11:29.526Z,1.30
2019-06-27T22:14:28.966Z,1.32
2019-06-27T22:17:40.713Z,1.32
2019-06-27T22:20:40.430Z,0.98
2019-06-27T22:24:01.386Z,1.60
2019-06-27T22:27:20.303Z,1.12
2019-06-27T22:30:32.551Z,1.45
2019-06-27T22:33:31.762Z,1.40
2019-06-27T22:36:44.520Z,2.30
2019-06-27T22:39:53.447Z,1.70
2019-06-27T22:43:16.457Z,1.10
2019-06-27T22:46:25.386Z,1.10
2019-06-27T22:49:29.200Z,1.02
2019-06-27T22:52:51.691Z,1.25
2019-06-27T22:56:04.459Z,1.10
2019-06-27T22:59:03.912Z,1.35
2019-06-27T23:02:17.448Z,1.37
2019-06-27T23:08:39.399Z,1.27
2019-06-27T23:11:45.767Z,1.70
2019-06-27T23:14:51.879Z,1.80
2019-06-27T23:17:58.254Z,1.20
2019-06-27T23:21:05.640Z,1.27
2019-06-27T23:24:11.494Z,1.95
2019-06-27T23:27:24.520Z,1.57
2019-06-27T23:33:47.243Z,1.82
2019-06-27T23:36:47.467Z,1.98
2019-06-27T23:40:13.372Z,1.55
2019-06-27T23:43:00.216Z,1.77
2019-06-27T23:46:13.749Z,1.80
2019-06-27T23:49:13.709Z,1.50
2019-06-27T23:52:23.653Z,1.60
2019-06-27T23:55:17.221Z,1.57
2019-06-27T23:58:29.479Z,1.40
